x

9442396 - La Push, Wa (lapw1) Weather Station

9:30 - Tue 27th Sep 2016 All times are PDT. -7 hours from GMT.

  • Wind
    5mph, 10mph gusts
  • Sea Temp 56°f
  • Luft Temp 53°f
  • Sea Pressure 1023.3mb
  • 9442396 - La Push, Wa
  • 9442396 - La Push, Wa

More Historic Weather Station data

Upgrade to MSW Pro to gain access to the past 30 days of data for over 8000 Wavebouys and Weather Stations around the globe.

Join Pro

Comparision Forecast

View Surf forecast
   
Di 09/27 9:30 5 10 mph 1023.3mb 56f 53f
9:24 10 13 mph 1023.4mb 56f 53f
9:18 9 11 mph 1023.4mb 56f 53f
9:12 8 10 mph 1023.4mb 56f 53f
9:06 9 13 mph 1023.4mb 56f 53f
9:00 9 15 mph 1023.4mb 56f 53f
8:36 10 14 mph 1023.3mb 56f 54f
8:30 10 13 mph 1023.3mb 56f 54f
8:24 6 7 mph 1023.1mb 56f 54f
8:18 6 7 mph 1023.1mb 57f 54f
8:12 5 7 mph 1023.1mb 57f 53f
8:06 3 6 mph 1023.1mb 57f 53f
8:00  -  1 mph 1023.1mb 57f 53f
7:36 2 3 mph 1022.9mb 57f 53f
7:30 2 3 mph 1022.9mb 57f 53f
7:24 2 3 mph 1022.8mb 57f 53f
7:18 1 2 mph 1022.8mb 57f 53f
7:12 1 3 mph 1022.8mb 57f 53f
7:06 2 3 mph 1022.8mb 57f 53f
7:00 2 5 mph 1022.7mb 57f 52f
6:36 2 5 mph 1022.7mb 57f 52f
6:30 2 3 mph 1022.7mb 57f 53f
6:24 2 3 mph 1022.6mb 57f 53f
6:18 2 3 mph 1022.6mb 57f 53f
6:12 2 5 mph 1022.7mb 58f 53f
6:06 5 7 mph 1022.7mb 58f 53f
6:00 3 6 mph 1022.6mb 58f 54f
5:36 5 8 mph 1022.5mb 59f 54f
5:30 3 6 mph 1022.5mb 59f 54f
5:24 3 7 mph 1022.5mb 59f 54f
5:18 2 6 mph 1022.5mb 59f 54f
5:12 2 5 mph 1022.4mb 59f 54f
5:06 2 5 mph 1022.4mb 59f 54f
5:00 3 5 mph 1022.4mb 59f 54f
4:36 8 13 mph 1022.4mb 59f 55f
4:30 6 8 mph 1022.3mb 59f 55f
4:24 7 9 mph 1022.3mb 59f 55f
4:18 6 9 mph 1022.3mb 59f 55f
4:12 8 11 mph 1022.2mb 59f 55f
4:06 7 10 mph 1022.2mb 59f 55f
4:00 10 13 mph 1022.2mb 59f 55f
3:36 8 14 mph 1022.1mb 59f 55f
3:30 10 14 mph 1022.1mb 59f 56f
3:24 13 16 mph 1022.1mb 59f 56f
3:18 14 18 mph 1022.1mb 58f 56f
3:12 15 18 mph 1022.1mb 58f 56f
3:06 15 16 mph 1022mb 58f 56f
3:00 14 17 mph 1022mb 58f 55f
2:36 14 16 mph 1021.7mb 57f 55f
2:30 13 16 mph 1021.7mb 58f 55f
2:24 14 16 mph 1021.6mb 57f 55f
2:18 13 16 mph 1021.6mb 58f 55f
2:12 14 17 mph 1021.6mb 58f 55f
2:06 13 15 mph 1021.5mb 57f 56f
2:00 14 17 mph 1021.4mb 57f 55f
1:36 14 17 mph 1021.3mb 57f 57f
1:30 13 17 mph 1021.4mb 57f 57f
1:24 6 11 mph 1021mb 57f 57f
1:18 10 14 mph 1021mb 57f 57f
1:12 14 15 mph 1021mb 57f 56f
1:06 13 18 mph 1021mb 57f 56f
1:00 14 20 mph 1021mb 57f 58f
12:36 1
mph
1020.7mb 57f 59f
12:30  -  1 mph 1020.7mb 57f 59f
12:24  -  mph 1020.6mb 57f 59f
12:18  -  1 mph 1020.5mb 57f 59f
12:12  -  1 mph 1020.5mb 57f 59f
12:06  -  1 mph 1020.5mb 57f 59f
12:00  -  mph 1020.4mb 58f 59f
Mo 09/26 11:36 2
mph
1020.3mb 57f 59f
11:30  -  1 mph 1020.2mb 57f 59f
11:24  -  1 mph 1020.2mb 57f 59f
11:18  -  1 mph 1020.2mb 57f 59f
11:12 1
mph
1020.1mb 57f 59f
11:06  -  1 mph 1020.2mb 57f 59f
11:00  -  1 mph 1020.1mb 57f 59f
10:36 1
mph
1020mb 57f 59f
10:30  -  mph 1020.1mb 57f 59f
10:24  -  2 mph 1020mb 57f 59f
10:18 1
mph
1020mb 57f 59f
10:12  -  1 mph 1019.9mb 57f 59f
10:06  -  1 mph 1020mb 57f 59f
10:00 2
mph
1020mb 58f 59f
9:36 1
mph
1019.8mb 58f 59f
9:30 1
mph
1019.7mb 58f 59f
9:24 1
mph
1019.7mb 57f 59f
9:18  -  1 mph 1019.6mb 57f 59f
9:12  -  2 mph 1019.6mb 58f 59f
9:06 2 3 mph 1019.6mb 58f 59f
9:00 1 2 mph 1019.6mb 57f 59f
8:36 2
mph
1019.4mb 57f 59f
8:30 2
mph
1019.4mb 57f 59f
8:24  -  1 mph 1019.3mb 57f 59f
8:18  -  1 mph 1019.3mb 57f 59f
8:12  -  1 mph 1019.2mb 57f 59f
8:06  -  1 mph 1019.2mb 57f 59f
8:00  -  mph 1019.1mb 57f 59f
7:36 1 2 mph 1019.1mb 57f 59f
7:30 1 2 mph 1019mb 57f 59f
7:24 1 3 mph 1019mb 57f 59f
7:18 2 3 mph 1018.9mb 57f 59f
7:12 3 5 mph 1018.9mb 57f 59f
7:06 3 5 mph 1018.9mb 57f 59f
7:00 3 5 mph 1018.8mb 57f 59f
6:36 3 6 mph 1018.8mb 57f 59f
6:30 5 6 mph 1018.8mb 57f 59f
6:24 5 6 mph 1018.8mb 57f 59f
6:18 6 7 mph 1018.8mb 57f 59f
6:12 6 7 mph 1018.7mb 57f 59f
6:06 5
mph
1018.7mb 57f 59f
6:00 5 6 mph 1018.7mb 57f 59f
5:36 3 5 mph 1018.7mb 57f 59f
5:30 5 7 mph 1018.7mb 57f 59f
5:24 3 5 mph 1018.7mb 57f 59f
5:18 3 5 mph 1018.7mb 57f 59f
5:12 3 5 mph 1018.7mb 57f 59f
5:06 5 7 mph 1018.7mb 57f 59f
5:00 5 7 mph 1018.8mb 57f 59f
4:36 3 5 mph 1019mb 56f 59f
4:30 3 5 mph 1019mb 56f 60f
4:24 2 5 mph 1019mb 56f 60f
4:18 2 5 mph 1019mb 56f 60f
4:12 2 5 mph 1019.1mb 56f 60f
4:06 3 5 mph 1019.1mb 56f 60f
4:00 2 6 mph 1019mb 56f 59f
3:36 5 6 mph 1019.2mb 56f 59f
3:30 5 7 mph 1019.3mb 56f 59f
3:24 6 7 mph 1019.3mb 56f 59f
3:18 6 7 mph 1019.3mb 56f 59f
3:12 6 8 mph 1019.3mb 56f 59f
3:06 6 7 mph 1019.3mb 56f 59f
3:00 6 8 mph 1019.2mb 56f 59f
2:36 7 8 mph 1019.2mb 56f 60f
2:30 6 7 mph 1019.2mb 56f 60f
2:24 6 7 mph 1019.2mb 56f 60f
2:18 6 7 mph 1019.3mb 56f 60f
2:12 5 7 mph 1019.3mb 55f 60f
2:06 6 7 mph 1019.3mb 56f 60f
2:00 6 7 mph 1019.4mb 56f 60f
1:36 5 6 mph 1019.5mb 56f 60f
1:30 5 6 mph 1019.6mb 56f 60f
1:24 5 6 mph 1019.5mb 56f 60f
1:18 5
mph
1019.4mb 56f 60f
1:12 2 5 mph 1019.4mb 56f 60f
1:06 5
mph
1019.5mb 56f 60f
1:00 2 3 mph 1019.4mb 55f 60f
12:36 3 5 mph 1019.6mb 56f 60f
12:30 3 5 mph 1019.5mb 56f 60f
12:24 5 6 mph 1019.5mb 56f 60f
12:18 5
mph
1019.4mb 56f 60f
12:12 3 5 mph 1019.4mb 55f 59f
12:06 3
mph
1019.4mb 55f 59f
12:00 2 5 mph 1019.4mb 55f 59f
11:36 5 6 mph 1019.4mb 56f 60f
11:30 3 5 mph 1019.3mb 56f 60f
11:24 3
mph
1019.3mb 56f 60f
11:18 2
mph
1019.3mb 56f 60f
11:12 1 3 mph 1019.3mb 56f 60f
11:06 3
mph
1019.5mb 56f 60f
11:00 2 3 mph 1019.6mb 56f 60f
10:36 5 7 mph 1019.3mb 56f 59f
10:30 5 7 mph 1019.4mb 56f 59f
10:24 6 7 mph 1019.5mb 56f 59f
10:18 6 7 mph 1019.4mb 56f 60f
10:12 6 7 mph 1019.3mb 56f 61f
10:06 6
mph
1019.2mb 56f 61f
10:00 5 6 mph 1019.3mb 56f 60f
9:36 5 8 mph 1019.3mb 56f 62f
9:30 6 8 mph 1019.4mb 56f 61f
9:24 6 8 mph 1019.4mb 56f 60f
9:18 6 7 mph 1019.5mb 56f 60f
9:12 6 7 mph 1019.6mb 56f 59f
9:06 6 7 mph 1019.6mb 56f 59f
9:00 6 7 mph 1019.6mb 56f 59f
8:54 7 9 mph 1019.7mb 56f 58f
8:48 7 9 mph 1019.6mb 56f 58f
8:36 7 8 mph 1019.5mb 56f 57f
8:30 6 8 mph 1019.6mb 56f 56f
8:24 6 9 mph 1019.6mb 56f 56f
8:18 6 8 mph 1019.7mb 56f 56f
8:12 6 9 mph 1019.6mb 56f 55f
8:06 7 9 mph 1019.6mb 56f 55f
8:00 7 8 mph 1019.6mb 56f 55f
7:36 6 8 mph 1019.9mb 57f 54f
7:30 5 8 mph 1019.9mb 57f 54f
7:24 7 10 mph 1019.9mb 57f 54f
7:18 8 11 mph 1020mb 57f 54f
7:12 8 11 mph 1019.9mb 57f 54f
7:06 9 11 mph 1019.9mb 57f 54f
7:00 9 11 mph 1019.9mb 57f 54f
6:54 9 13 mph 1019.8mb 57f 54f
6:48 10 13 mph 1019.8mb 57f 55f
6:36 8 10 mph 1019.8mb 57f 55f
6:30 8 11 mph 1019.7mb 57f 55f
6:24 9 11 mph 1019.8mb 57f 54f
6:18 9 13 mph 1019.9mb 56f 54f
6:12 10 13 mph 1019.9mb 57f 54f
6:06 10 13 mph 1019.9mb 57f 54f
6:00 10 13 mph 1019.9mb 57f 55f
5:54 8 11 mph 1019.8mb 57f 55f
5:48 9 13 mph 1019.8mb 57f 54f
5:36 10 11 mph 1019.8mb 57f 54f
5:30 10 13 mph 1019.9mb 57f 54f
5:24 10 13 mph 1019.9mb 57f 54f
5:18 9 11 mph 1020mb 57f 55f
5:12 8 13 mph 1020mb 57f 55f
5:06 11 14 mph 1020mb 57f 55f
5:00 10 14 mph 1020.1mb 57f 55f
4:54 10 13 mph 1020.1mb 57f 55f
4:48 10 13 mph 1020.3mb 57f 55f
4:36 10 11 mph 1020.3mb 57f 55f
4:30 9 11 mph 1020.4mb 57f 55f
4:24 8 11 mph 1020.4mb 58f 55f
4:18 7 9 mph 1020.5mb 58f 55f
4:12 6 7 mph 1020.6mb 58f 55f
4:06 3 5 mph 1020.8mb 58f 55f
4:00 1 2 mph 1020.9mb 58f 55f
3:54 3
mph
1020.9mb 58f 55f
3:48 1 6 mph 1020.8mb 58f 56f
3:36 9 13 mph 1020.8mb 58f 55f
3:30 9 11 mph 1020.8mb 58f 55f
3:24 9 13 mph 1020.8mb 58f 56f
3:18 10 11 mph 1020.8mb 58f 56f
3:12 9 11 mph 1020.9mb 58f 56f
3:06 9 13 mph 1020.9mb 58f 56f
3:00 9 13 mph 1021mb 58f 56f
2:54 9 13 mph 1021.1mb 58f 56f
2:48 8 10 mph 1021.2mb 58f 56f
2:36 8 11 mph 1021.5mb 58f 56f
2:30 9 11 mph 1021.5mb 58f 56f
2:24 9 13 mph 1021.6mb 58f 56f
2:18 9 11 mph 1021.6mb 58f 56f
2:12 9 11 mph 1021.7mb 58f 56f
2:06 9 11 mph 1021.8mb 57f 56f
2:00 9 11 mph 1021.9mb 57f 56f
1:54 9 11 mph 1022mb 57f 56f
1:48 10 11 mph 1022.1mb 57f 56f
1:36 10 11 mph 1022.3mb 57f 56f
1:30 9 11 mph 1022.3mb 57f 56f
1:24 7 11 mph 1022.4mb 57f 56f
1:18 9 11 mph 1022.4mb 57f 56f
1:12 9 11 mph 1022.5mb 56f 56f
1:06 8 10 mph 1022.6mb 57f 57f
1:00 7 10 mph 1022.6mb 57f 57f
12:54 8 10 mph 1022.7mb 57f 57f
12:48 8 11 mph 1022.7mb 57f 57f
12:36 9 11 mph 1022.8mb 57f 57f
12:30 7 10 mph 1022.9mb 57f 57f
12:24 8 9 mph 1023mb 57f 57f
12:18 7 10 mph 1023.1mb 57f 58f
12:12 8 10 mph 1023.1mb 56f 57f
12:06 7 11 mph 1023.1mb 57f 57f
12:00 7 9 mph 1023.2mb 57f 57f
So 09/25 11:54 6 8 mph 1023.2mb 56f 57f
11:48 7 9 mph 1023.2mb 57f 57f
11:36 9 10 mph 1023.2mb 57f 58f
11:30 8 10 mph 1023.2mb 57f 58f
11:24 9 11 mph 1023.2mb 57f 58f
11:18 8 10 mph 1023.3mb 57f 58f
11:12 8 10 mph 1023.4mb 57f 58f
11:06 8 10 mph 1023.4mb 56f 58f
11:00 9 10 mph 1023.5mb 57f 58f
10:54 9 11 mph 1023.5mb 57f 58f
10:48 8 10 mph 1023.5mb 57f 58f
10:36 7 10 mph 1023.6mb 57f 58f
10:30 7 10 mph 1023.7mb 57f 58f
10:24 7 9 mph 1023.8mb 57f 58f
10:18 7 10 mph 1023.8mb 57f 58f
10:12 7 10 mph 1023.8mb 57f 58f
10:06 8 10 mph 1023.9mb 57f 58f
10:00 5 8 mph 1023.9mb 57f 58f
9:54 5 7 mph 1024mb 57f 58f
9:48 3 6 mph 1024.1mb 57f 58f
9:36 1 5 mph 1024.2mb 57f 56f
9:30  -  2 mph 1024.2mb 57f 56f
9:24 1 3 mph 1024.3mb 57f 57f
9:18 3
mph
1024.4mb 57f 57f
9:12 2 3 mph 1024.4mb 57f 58f
9:06  -  2 mph 1024.5mb 57f 58f
9:00 2
mph
1024.5mb 57f 58f
8:54 2
mph
1024.6mb 57f 58f
8:48  -  1 mph 1024.6mb 57f 58f
8:36 2 5 mph 1024.8mb 57f 58f
8:30 5 7 mph 1024.9mb 57f 58f
8:24 5 7 mph 1024.9mb 57f 58f
8:18 2 7 mph 1024.9mb 57f 59f
8:12 7 9 mph 1024.9mb 57f 59f
8:06 7 10 mph 1024.9mb 57f 59f
8:00 8 10 mph 1025mb 57f 59f
7:54 9 11 mph 1025mb 57f 59f
7:48 9 11 mph 1025mb 57f 59f
7:36 6 8 mph 1025mb 57f 59f
7:30 6 8 mph 1025.1mb 57f 59f
7:24 9 11 mph 1025.2mb 57f 59f
7:18 11 14 mph 1025.3mb 57f 59f
7:12 10 13 mph 1025.2mb 57f 59f
7:06 10 15 mph 1025.4mb 57f 59f
7:00 10 14 mph 1025.4mb 57f 59f
6:54 13 14 mph 1025.5mb 56f 59f
6:48 11 14 mph 1025.6mb 56f 59f
6:36 9 10 mph 1025.5mb 56f 59f
6:30 10 11 mph 1025.6mb 56f 59f
6:24 10 11 mph 1025.7mb 56f 59f
6:18 8 10 mph 1025.8mb 56f 59f
6:12 7 9 mph 1025.7mb 56f 59f
6:06 8 9 mph 1025.8mb 56f 59f
6:00 7 8 mph 1025.8mb 56f 60f
5:54 8 10 mph 1025.9mb 56f 60f
5:48 9 11 mph 1026mb 56f 60f
5:36 8 11 mph 1026.1mb 56f 60f
5:30 10 11 mph 1026.2mb 56f 60f
5:24 9 11 mph 1026.4mb 56f 60f
5:18 9 13 mph 1026.5mb 56f 60f
5:12 10 11 mph 1026.6mb 56f 60f
5:06 9 11 mph 1026.7mb 56f 60f
5:00 9 10 mph 1026.7mb 56f 60f
4:54 7 9 mph 1026.7mb 56f 60f
4:48 8 9 mph 1026.9mb 56f 61f
4:36 6 7 mph 1027mb 56f 61f
4:30 6
mph
1027mb 56f 61f
4:24 6 9 mph 1027.1mb 56f 61f
4:18 8 9 mph 1027.3mb 56f 61f
4:12 8 9 mph 1027.5mb 56f 61f
4:06 7 8 mph 1027.6mb 56f 61f
4:00 8
mph
1027.8mb 56f 61f
3:36 6 7 mph 1027.9mb 56f 61f
3:30 6 7 mph 1027.9mb 56f 61f
3:24 6 7 mph 1028.1mb 56f 61f
3:18 6
mph
1028.1mb 56f 61f
3:12 3 5 mph 1028.1mb 56f 61f
3:06 5
mph
1028.1mb 56f 61f
3:00 3 5 mph 1028.2mb 56f 60f
2:54 5
mph
1028.3mb 56f 61f
2:48 3 5 mph 1028.3mb 56f 61f
2:36 2 3 mph 1028.4mb 56f 61f
2:30 2 3 mph 1028.4mb 56f 60f
2:24 2 5 mph 1028.5mb 56f 60f
2:18 3 5 mph 1028.5mb 56f 60f
2:12 5 6 mph 1028.6mb 56f 60f
2:06 5 6 mph 1028.6mb 56f 60f
2:00 5 7 mph 1028.7mb 56f 60f
1:54 6 7 mph 1028.7mb 56f 60f
1:48 5 6 mph 1028.8mb 56f 61f
1:36 5 6 mph 1028.9mb 56f 60f
1:30 6 7 mph 1029mb 56f 61f
1:24 5 6 mph 1029mb 56f 61f
1:18 6 7 mph 1029.1mb 56f 61f
1:12 5 7 mph 1029mb 56f 61f
1:06 6 9 mph 1029mb 56f 60f
1:00 7 10 mph 1029.1mb 56f 61f
12:54 8 10 mph 1029.1mb 56f 62f
12:48 8 10 mph 1029mb 56f 62f
12:36 7 9 mph 1029mb 56f 62f
12:30 6 7 mph 1029mb 56f 62f
12:24 5 9 mph 1029mb 56f 62f
12:18 3 7 mph 1029.1mb 56f 62f
12:12 3 6 mph 1029.1mb 56f 62f
12:06 3 9 mph 1029.1mb 56f 62f
12:00 3 7 mph 1029.1mb 56f 61f
11:54 5 7 mph 1029.1mb 56f 61f
11:48 6 7 mph 1029.1mb 56f 60f
11:36 3 7 mph 1029.2mb 56f 60f
11:30 5 8 mph 1029.1mb 56f 60f
11:24 6 8 mph 1029.1mb 56f 61f
11:18 7 9 mph 1029.2mb 56f 61f
11:12 5 6 mph 1029.3mb 56f 61f
11:06 5 8 mph 1029.2mb 56f 61f
11:00 6 7 mph 1029.3mb 56f 60f
10:54 2 7 mph 1029.3mb 56f 60f
10:48 3 6 mph 1029.3mb 56f 60f
10:36 3 6 mph 1029.3mb 56f 60f
10:30 5 6 mph 1029.2mb 56f 60f
10:24 2 5 mph 1029.2mb 56f 59f
10:18 3 6 mph 1029.2mb 56f 59f
10:12 3 6 mph 1029.2mb 56f 59f
10:06 3 6 mph 1029.2mb 56f 59f
10:00 5 6 mph 1029.2mb 56f 59f
9:54 3 7 mph 1029.1mb 56f 59f
9:48 3 9 mph 1029.1mb 56f 58f
9:36 3 5 mph 1029.3mb 56f 58f
9:30 5 6 mph 1029.2mb 56f 58f
9:24 3 6 mph 1029.1mb 56f 57f
9:18 6 7 mph 1029.1mb 56f 57f
9:12 5 6 mph 1029mb 56f 57f
9:06 3 6 mph 1029mb 56f 57f
9:00 3 5 mph 1028.9mb 56f 57f
8:36 2 6 mph 1028.9mb 56f 57f
8:30 3 6 mph 1028.8mb 56f 57f
8:24 3 6 mph 1028.7mb 56f 57f
8:18 3 6 mph 1028.6mb 56f 57f
8:12 5 7 mph 1028.6mb 56f 57f
8:06 5 7 mph 1028.5mb 56f 57f
8:00 5 7 mph 1028.5mb 56f 57f
7:54 5 6 mph 1028.5mb 56f 57f
7:48 3 7 mph 1028.4mb 56f 57f
7:36 3 8 mph 1028.4mb 56f 57f
7:30 3 9 mph 1028.4mb 56f 56f
7:24 3 6 mph 1028.4mb 56f 56f
7:18 3 8 mph 1028.3mb 56f 56f
7:12 5 6 mph 1028.3mb 56f 56f
7:06 5 6 mph 1028.3mb 56f 56f
7:00 3 7 mph 1028.3mb 56f 56f
6:54 3 6 mph 1028.2mb 56f 56f
6:48 5 6 mph 1028.2mb 56f 56f
6:36 5 6 mph 1028.1mb 56f 56f
6:30 5 7 mph 1028mb 56f 56f
6:24 6 7 mph 1028mb 56f 56f
6:18 5 6 mph 1028mb 56f 56f
6:12 5 6 mph 1028mb 56f 56f
6:06 5 6 mph 1027.9mb 56f 56f
6:00 6 7 mph 1027.9mb 56f 56f
5:54 5 7 mph 1027.8mb 56f 56f
5:48 5 7 mph 1027.8mb 57f 56f
5:36 5 7 mph 1027.9mb 56f 55f
5:30 6
mph
1027.9mb 56f 55f
5:24 6 7 mph 1027.8mb 57f 55f
5:18 6
mph
1027.8mb 58f 55f
5:12 5 7 mph 1027.9mb 58f 55f
5:06 5 6 mph 1027.9mb 58f 55f
5:00 5 6 mph 1027.9mb 58f 55f
4:54 6 7 mph 1027.9mb 58f 55f
4:48 5 6 mph 1028.1mb 58f 55f
4:36 5 7 mph 1028.1mb 58f 55f
4:30 6 7 mph 1028.1mb 58f 55f
4:24 5 7 mph 1028.1mb 58f 55f
4:18 6 8 mph 1028mb 58f 55f
4:12 5 6 mph 1028mb 58f 55f
4:06 6 7 mph 1027.9mb 58f 55f
4:00 3 7 mph 1027.9mb 58f 55f
3:54 6 8 mph 1027.9mb 58f 55f
3:48 6
mph
1028mb 58f 55f
3:36 6 7 mph 1028.1mb 58f 56f
3:30 6 8 mph 1028.1mb 58f 56f
3:24 6 8 mph 1028.1mb 58f 56f
3:18 6 8 mph 1028.2mb 58f 56f
3:12 6 8 mph 1028.2mb 58f 56f
3:06 6 8 mph 1028.2mb 58f 56f
3:00 5 7 mph 1028.3mb 58f 56f
2:54 7 9 mph 1028.3mb 58f 56f
2:48 5 8 mph 1028.3mb 58f 56f
2:36 6 7 mph 1028.2mb 58f 56f
2:30 3 6 mph 1028.1mb 58f 56f
2:24 5 8 mph 1028.1mb 58f 56f
2:18 6 7 mph 1028.1mb 58f 56f
2:12 6 7 mph 1028.2mb 58f 56f
2:06 6 7 mph 1028.2mb 58f 56f
2:00 6 8 mph 1028.2mb 58f 56f
1:54 6 8 mph 1028.1mb 58f 56f
1:48 7 8 mph 1028.1mb 58f 56f
1:36 6 7 mph 1028.3mb 58f 56f
1:30 6 9 mph 1028.3mb 58f 56f
1:24 6 8 mph 1028.3mb 58f 56f
1:18 6 8 mph 1028.2mb 58f 56f
1:12 6 8 mph 1028.3mb 58f 56f
1:06 7 9 mph 1028.3mb 58f 56f
1:00 5 8 mph 1028.4mb 58f 56f
12:54 5 6 mph 1028.5mb 58f 56f
12:48 6 7 mph 1028.6mb 58f 56f
12:36 5 8 mph 1028.6mb 58f 56f
12:30 5 7 mph 1028.6mb 58f 56f
12:24 5 8 mph 1028.6mb 58f 56f
12:18 6 7 mph 1028.7mb 58f 56f
12:12 5 7 mph 1028.6mb 58f 56f
12:06 3 6 mph 1028.6mb 58f 55f
12:00 5 7 mph 1028.5mb 57f 56f
Sa 09/24 11:54 6 7 mph 1028.6mb 57f 55f
11:48 5 9 mph 1028.5mb 57f 55f
11:36 6 7 mph 1028.6mb 57f 56f
11:30 5 6 mph 1028.8mb 57f 56f
11:24 5 7 mph 1028.7mb 57f 56f
11:18 5 7 mph 1028.7mb 57f 56f
11:12 5 6 mph 1028.7mb 57f 56f
11:06 5
mph
1028.8mb 57f 56f
11:00 3 6 mph 1028.6mb 57f 56f
10:54 3 5 mph 1028.6mb 57f 56f
10:48 5 6 mph 1028.5mb 57f 56f
10:36 5 6 mph 1028.4mb 57f 55f
10:30 5 6 mph 1028.5mb 57f 56f
10:24 6 7 mph 1028.5mb 57f 56f
10:18 6 7 mph 1028.4mb 57f 55f
10:12 3 7 mph 1028.3mb 57f 55f
10:06 5 6 mph 1028.3mb 57f 55f
10:00 5 6 mph 1028.3mb 56f 55f
9:54 5 6 mph 1028.1mb 57f 55f
9:48 5 6 mph 1028.1mb 57f 55f
9:36 5 6 mph 1028.2mb 56f 55f
9:30 5 6 mph 1028mb 56f 56f
9:24 3 5 mph 1028.1mb 56f 56f
9:18 2 5 mph 1028mb 57f 56f
9:12 2 5 mph 1027.8mb 56f 56f
9:06 3 5 mph 1027.8mb 56f 55f
9:00 5 6 mph 1027.8mb 57f 55f
8:54 3 5 mph 1027.9mb 57f 55f
8:48 2 5 mph 1027.7mb 56f 56f
8:36 3 6 mph 1027.6mb 56f 56f
8:30 3 5 mph 1027.6mb 56f 56f
8:24 1 2 mph 1027.6mb 56f 56f
8:18 2
mph
1027.6mb 56f 56f
8:12 1 2 mph 1027.6mb 56f 57f
8:06  -  2 mph 1027.6mb 56f 56f
8:00 2 3 mph 1027.3mb 56f 56f
7:54 2
mph
1027.5mb 56f 56f
7:48 2
mph
1027.6mb 56f 57f
7:36 2
mph
1027.7mb 56f 57f
7:30 1 2 mph 1027.6mb 56f 57f
7:24 2
mph
1027.5mb 56f 57f
7:18  -  2 mph 1027.3mb 56f 57f
7:12 1 2 mph 1027.1mb 56f 57f
7:06  -  mph 1027.3mb 56f 57f
7:00  -  1 mph 1027.3mb 55f 58f
6:54  -  1 mph 1027.2mb 55f 58f
6:48  -  1 mph 1027.3mb 55f 58f
6:36  -  1 mph 1027.2mb 55f 58f
6:30  -  2 mph 1027.1mb 55f 58f
6:24 2 3 mph 1027.1mb 55f 58f
6:18 2 3 mph 1027mb 55f 59f
6:12 3
mph
1026.9mb 55f 59f
6:06  -  2 mph 1027.1mb 55f 59f
6:00 2 3 mph 1027mb 55f 59f
5:54 1 2 mph 1027.1mb 55f 59f
5:48  -  3 mph 1027.3mb 55f 59f
5:36 2 5 mph 1027.1mb 55f 58f
5:30 3 5 mph 1027.3mb 55f 58f
5:24 2 3 mph 1027.3mb 55f 57f
5:18 2 3 mph 1027.2mb 55f 58f
5:12 2 3 mph 1027.3mb 55f 58f
5:06 2 3 mph 1027.2mb 55f 58f
5:00 2 3 mph 1027.4mb 55f 58f
4:54 1 2 mph 1027.4mb 55f 58f
4:48 2 5 mph 1027.5mb 55f 57f
4:36 3 6 mph 1027.4mb 55f 58f
4:30 3
mph
1027.3mb 55f 58f
4:24 2 5 mph 1027.3mb 55f 58f
4:18 3 5 mph 1027.3mb 55f 58f
4:12 5 6 mph 1027.6mb 55f 58f
4:06 3 5 mph 1027.5mb 55f 58f
4:00 1 2 mph 1027.5mb 55f 58f
3:36 2 3 mph 1027.4mb 56f 57f
3:30 1
mph
1027.8mb 56f 57f
3:24 1 3 mph 1028.2mb 56f 57f
3:18 3
mph
1028.2mb 56f 57f
3:12 3 5 mph 1028.1mb 56f 57f
3:06 5
mph
1028mb 56f 58f
3:00 3 5 mph 1027.9mb 55f 58f
2:54 5
mph
1027.7mb 55f 58f
2:48 5 6 mph 1027.8mb 56f 58f
2:36 3 6 mph 1027.9mb 56f 58f
2:30 6 7 mph 1027.9mb 56f 58f
2:24 5 7 mph 1027.9mb 56f 58f
2:18 6 8 mph 1028.1mb 56f 58f
2:12 7 9 mph 1028.2mb 56f 58f
2:06 7 8 mph 1028.1mb 56f 57f
2:00 6 8 mph 1028mb 56f 58f
1:54 6 8 mph 1028.1mb 56f 58f
1:48 6 8 mph 1028mb 56f 58f
1:36 7 8 mph 1028.2mb 56f 58f
1:30 7 8 mph 1028.4mb 56f 58f
1:24 6 7 mph 1028.3mb 56f 57f
1:18 6 8 mph 1028.4mb 56f 57f
1:12 7 9 mph 1028.4mb 56f 57f
1:06 8 10 mph 1028.6mb 56f 57f
1:00 7 9 mph 1028.7mb 56f 57f
12:54 7 9 mph 1028.8mb 56f 57f
12:48 7 9 mph 1028.8mb 56f 57f
12:36 7 9 mph 1028.9mb 56f 57f
12:30 8 9 mph 1028.7mb 56f 57f
12:24 8 10 mph 1028.8mb 55f 57f
12:18 7 9 mph 1028.7mb 55f 57f
12:12 7 8 mph 1028.6mb 55f 57f
12:06 7 8 mph 1028.7mb 55f 57f
12:00 7 8 mph 1029mb 55f 58f
11:54 6 7 mph 1028.9mb 55f 59f
11:48 2 6 mph 1028.8mb 55f 58f
11:36 5 7 mph 1028.8mb 55f 58f
11:30 5 6 mph 1028.6mb 55f 57f
11:24 3 5 mph 1028.8mb 55f 57f
11:18 2 3 mph 1029mb 55f 57f
11:12 2 3 mph 1028.9mb 55f 58f
11:06 2 3 mph 1028.9mb 55f 57f
11:00 2 3 mph 1029.1mb 56f 57f
10:54 3 5 mph 1029.1mb 56f 57f
10:48 2 5 mph 1029.1mb 56f 56f
10:36 1 5 mph 1029mb 56f 56f
10:30 3 5 mph 1028.9mb 56f 55f
10:24 1 3 mph 1029.1mb 56f 55f
10:18 2 3 mph 1029.1mb 56f 55f
10:12 2 3 mph 1029mb 56f 54f
10:06 5 6 mph 1028.6mb 56f 54f
10:00 5 7 mph 1028.5mb 57f 53f
9:54 5 6 mph 1028.5mb 57f 53f
9:48 5 7 mph 1028.6mb 57f 52f
9:36 5 6 mph 1028.5mb 57f 52f
9:30 5 7 mph 1028.3mb 57f 52f
9:24 6 8 mph 1028.1mb 57f 51f
9:18 7 8 mph 1028mb 57f 51f
9:12 6 7 mph 1028mb 57f 51f
9:06 6 7 mph 1028mb 57f 51f
9:00 6 8 mph 1027.9mb 57f 50f
8:54 6 7 mph 1027.9mb 57f 50f
8:48 5 8 mph 1028mb 57f 50f
8:36 5 7 mph 1028.1mb 57f 49f
8:30 6 7 mph 1028mb 57f 49f
8:24 6 8 mph 1027.9mb 57f 49f
8:18 6 7 mph 1027.8mb 57f 49f
8:12 5 6 mph 1027.8mb 57f 49f
8:06 6 7 mph 1027.7mb 57f 49f
8:00 6 8 mph 1027.6mb 57f 49f
7:54 6 8 mph 1027.6mb 57f 48f
7:48 6 8 mph 1027.6mb 57f 48f
7:36 6 8 mph 1027.3mb 57f 48f
7:30 6 7 mph 1027.3mb 57f 48f
7:24 7 9 mph 1027.2mb 57f 48f
7:18 7 8 mph 1027.1mb 57f 48f
7:12 5 9 mph 1027.2mb 57f 48f
7:06 7 9 mph 1027mb 57f 48f
7:00 6 8 mph 1026.9mb 57f 48f
6:54 6 8 mph 1027mb 57f 48f
6:48 6 7 mph 1026.9mb 57f 49f
6:36 5 7 mph 1026.9mb 57f 49f
6:30 7 8 mph 1026.8mb 57f 48f
6:24 6 8 mph 1026.6mb 57f 48f
6:18 7 8 mph 1026.5mb 57f 48f
6:12 6 7 mph 1026.5mb 57f 49f
6:06 6 7 mph 1026.5mb 57f 49f
6:00 5 7 mph 1026.5mb 57f 49f
5:54 6 8 mph 1026.5mb 57f 49f
5:48 6 7 mph 1026.5mb 57f 48f
5:36 6 7 mph 1026.3mb 57f 49f
5:30 6
mph
1026.3mb 57f 49f
5:24 6
mph
1026.3mb 57f 49f
5:18 6 7 mph 1026.3mb 57f 49f
5:12 5 6 mph 1026.3mb 57f 49f
5:06 5 8 mph 1026.2mb 57f 49f
5:00 7 8 mph 1026mb 57f 49f
4:54 5 6 mph 1026mb 57f 48f
4:48 5 7 mph 1025.9mb 57f 49f
4:36 6 7 mph 1025.7mb 57f 49f
4:30 5 6 mph 1025.7mb 57f 49f
4:24 5 7 mph 1025.7mb 57f 49f
4:18 5 7 mph 1025.6mb 57f 49f
4:12 5 7 mph 1025.6mb 57f 49f
4:06 5 7 mph 1025.5mb 57f 49f
4:00 6 8 mph 1025.5mb 57f 48f
3:54 7 8 mph 1025.5mb 57f 48f
3:48 6 7 mph 1025.5mb 57f 48f
3:36 7 8 mph 1025.4mb 57f 48f
3:30 7 8 mph 1025.4mb 57f 48f
3:24 7 9 mph 1025.5mb 57f 48f
3:18 6 8 mph 1025.4mb 57f 49f
3:12 7 10 mph 1025.5mb 57f 49f
3:06 8 9 mph 1025.6mb 57f 49f
3:00 7 9 mph 1025.4mb 57f 49f
2:54 7 8 mph 1025.4mb 57f 49f
2:48 6 7 mph 1025.5mb 57f 49f
2:36 6 9 mph 1025.4mb 56f 49f
2:30 7 9 mph 1025.4mb 56f 50f
2:24 5 7 mph 1025.5mb 56f 50f
2:18 3 6 mph 1025.4mb 56f 50f
2:12 6 8 mph 1025.4mb 56f 50f
2:06 7 8 mph 1025.4mb 56f 50f
2:00 3 6 mph 1025.5mb 56f 50f
1:54 5 6 mph 1025.3mb 56f 50f
1:48 2 3 mph 1025.3mb 56f 51f
1:36 3 6 mph 1025.4mb 56f 50f
1:30 5 6 mph 1025.3mb 56f 50f
1:24 2 5 mph 1025.3mb 56f 50f
1:18 3 5 mph 1025.3mb 56f 50f
1:12 3 6 mph 1025.2mb 56f 50f
1:06 6
mph
1025mb 56f 50f
1:00 3 6 mph 1025mb 56f 50f
12:54 6
mph
1024.8mb 56f 50f
12:48 3 6 mph 1024.7mb 56f 50f
12:36 2 6 mph 1024.4mb 56f 50f
12:30 6 7 mph 1024.2mb 56f 50f
12:24 6 8 mph 1024mb 56f 49f
12:18 6 7 mph 1024mb 56f 49f
12:12 6 8 mph 1023.7mb 56f 49f
12:06 7 9 mph 1023.8mb 56f 49f
12:00 7 8 mph 1023.8mb 56f 49f
Fr 09/23 11:54 6 9 mph 1023.8mb 56f 49f
11:48 5 8 mph 1023.8mb 56f 49f
11:36 6 7 mph 1023.8mb 57f 49f
11:30 6 7 mph 1023.7mb 57f 49f
11:24 7 9 mph 1023.6mb 57f 49f
11:18 7 8 mph 1023.5mb 57f 50f
11:12 3 5 mph 1023.4mb 57f 51f
11:06 1 5 mph 1023.3mb 57f 51f
11:00 2 3 mph 1023.3mb 57f 51f
10:54  -  2 mph 1023.3mb 57f 52f
10:48 2 5 mph 1023.2mb 57f 51f
10:36 6 10 mph 1023.3mb 57f 56f
10:30 8 9 mph 1023.3mb 57f 55f
10:24 6 7 mph 1023.2mb 57f 53f
10:18 5 7 mph 1023mb 57f 53f
10:12 6 8 mph 1023mb 57f 54f
10:06 6 8 mph 1022.9mb 57f 55f
10:00 6 10 mph 1022.8mb 57f 56f
9:54 8 9 mph 1022.8mb 57f 56f
9:48 8 9 mph 1022.8mb 57f 56f
9:36 7 10 mph 1022.7mb 57f 56f
9:30 7 10 mph 1022.7mb 57f 56f
9:24 8 11 mph 1022.6mb 57f 56f
9:18 8 10 mph 1022.5mb 57f 56f
9:12 8 9 mph 1022.5mb 57f 56f
9:06 8 11 mph 1022.4mb 57f 56f
9:00 9 10 mph 1022.3mb 57f 56f
8:54 9 11 mph 1022.3mb 57f 56f
8:48 8 10 mph 1022.1mb 57f 56f
8:36 10 11 mph 1022.1mb 57f 56f
8:30 9 11 mph 1021.7mb 57f 56f
8:24 10 13 mph 1021.6mb 57f 56f
8:18 11 14 mph 1021.4mb 57f 56f
8:12 9 11 mph 1021.3mb 57f 56f
8:06 9 13 mph 1021.3mb 57f 56f
8:00 9 11 mph 1021.1mb 57f 56f
7:54 8 13 mph 1021mb 57f 56f
7:48 9 11 mph 1020.9mb 57f 56f
7:36 10 11 mph 1020.5mb 57f 56f
7:30 9 10 mph 1020.3mb 57f 56f
7:24 9 11 mph 1020.3mb 57f 56f
7:18 10 11 mph 1020.4mb 57f 56f
7:12 9 11 mph 1020.4mb 57f 56f
7:06 9 11 mph 1020.2mb 57f 56f
7:00 8 13 mph 1019.9mb 57f 56f
6:54 11 13 mph 1019.8mb 57f 56f
6:48 11 16 mph 1019.5mb 57f 56f
6:36 14 16 mph 1019.4mb 57f 56f
6:30 14 18 mph 1019.1mb 57f 56f
6:24 14 17 mph 1019.4mb 57f 56f
6:18 15 20 mph 1019.3mb 57f 56f
6:12 16 18 mph 1019.2mb 57f 56f
6:06 14 18 mph 1019mb 57f 56f
6:00 14 17 mph 1018.8mb 57f 56f
5:54 16 20 mph 1018.7mb 57f 56f
5:48 14 16 mph 1018.7mb 57f 56f
5:36 13 15 mph 1018.4mb 57f 56f
5:30 13 15 mph 1018.1mb 57f 57f
5:24 11 16 mph 1017.7mb 57f 56f
5:18 14 20 mph 1017.7mb 57f 56f